sensor_id;sensor_type;location;lat;lon;timestamp;pressure;altitude;pressure_sealevel;temperature;humidity
17362;BME280;8798;51.938;4.348;2023-05-23T00:02:09;101042.50;;;15.47;69.01
17362;BME280;8798;51.938;4.348;2023-05-23T00:04:38;101042.84;;;15.44;68.99
17362;BME280;8798;51.938;4.348;2023-05-23T00:07:06;101009.94;;;15.32;69.18
17362;BME280;8798;51.938;4.348;2023-05-23T00:09:35;100987.66;;;15.22;69.23
17362;BME280;8798;51.938;4.348;2023-05-23T00:12:04;100993.44;;;15.19;69.33
17362;BME280;8798;51.938;4.348;2023-05-23T00:14:32;100978.94;;;15.12;69.45
17362;BME280;8798;51.938;4.348;2023-05-23T00:17:01;100977.59;;;15.08;69.47
17362;BME280;8798;51.938;4.348;2023-05-23T00:19:29;101007.88;;;15.11;69.56
17362;BME280;8798;51.938;4.348;2023-05-23T00:21:57;101061.78;;;15.21;69.70
17362;BME280;8798;51.938;4.348;2023-05-23T00:24:25;101083.44;;;15.21;69.86
17362;BME280;8798;51.938;4.348;2023-05-23T00:26:54;101086.47;;;15.18;69.95
17362;BME280;8798;51.938;4.348;2023-05-23T00:29:21;101100.84;;;15.18;70.00
17362;BME280;8798;51.938;4.348;2023-05-23T00:31:51;101115.22;;;15.19;70.03
17362;BME280;8798;51.938;4.348;2023-05-23T00:34:20;101151.91;;;15.21;70.13
17362;BME280;8798;51.938;4.348;2023-05-23T00:36:48;101145.84;;;15.19;70.17
17362;BME280;8798;51.938;4.348;2023-05-23T00:39:16;101120.66;;;15.11;70.20
17362;BME280;8798;51.938;4.348;2023-05-23T00:41:47;101148.56;;;15.11;70.29
17362;BME280;8798;51.938;4.348;2023-05-23T00:44:19;101199.81;;;15.21;70.40
17362;BME280;8798;51.938;4.348;2023-05-23T00:46:51;101231.94;;;15.24;70.40
17362;BME280;8798;51.938;4.348;2023-05-23T00:49:20;101226.88;;;15.21;70.40
17362;BME280;8798;51.938;4.348;2023-05-23T00:51:48;101240.56;;;15.19;70.73
17362;BME280;8798;51.938;4.348;2023-05-23T00:54:19;101238.19;;;15.16;70.75
17362;BME280;8798;51.938;4.348;2023-05-23T00:56:49;101256.13;;;15.17;70.97
17362;BME280;8798;51.938;4.348;2023-05-23T00:59:18;101315.31;;;15.29;70.93
17362;BME280;8798;51.938;4.348;2023-05-23T01:01:47;101339.19;;;15.33;70.88
17362;BME280;8798;51.938;4.348;2023-05-23T01:04:18;101358.97;;;15.34;70.95
17362;BME280;8798;51.938;4.348;2023-05-23T01:06:46;101391.78;;;15.39;70.96
17362;BME280;8798;51.938;4.348;2023-05-23T01:09:16;101408.72;;;15.41;71.12
17362;BME280;8798;51.938;4.348;2023-05-23T01:11:49;101404.50;;;15.38;71.28
17362;BME280;8798;51.938;4.348;2023-05-23T01:14:25;101415.31;;;15.38;71.16
17362;BME280;8798;51.938;4.348;2023-05-23T01:17:02;101452.53;;;15.44;71.43
17362;BME280;8798;51.938;4.348;2023-05-23T01:19:50;101505.69;;;15.54;71.27
17362;BME280;8798;51.938;4.348;2023-05-23T01:22:25;101542.91;;;15.60;71.41
17362;BME280;8798;51.938;4.348;2023-05-23T01:25:08;101569.34;;;15.66;71.37
17362;BME280;8798;51.938;4.348;2023-05-23T01:27:48;101555.47;;;15.61;71.43
17362;BME280;8798;51.938;4.348;2023-05-23T01:30:18;101553.06;;;15.58;71.56
17362;BME280;8798;51.938;4.348;2023-05-23T01:32:47;101589.31;;;15.65;71.30
17362;BME280;8798;51.938;4.348;2023-05-23T01:35:21;101592.00;;;15.65;71.39
17362;BME280;8798;51.938;4.348;2023-05-23T01:37:51;101580.00;;;15.59;71.54
17362;BME280;8798;51.938;4.348;2023-05-23T01:40:19;101587.13;;;15.60;71.57
17362;BME280;8798;51.938;4.348;2023-05-23T01:42:49;101593.69;;;15.58;71.42
17362;BME280;8798;51.938;4.348;2023-05-23T01:45:17;101572.56;;;15.53;71.37
17362;BME280;8798;51.938;4.348;2023-05-23T01:47:46;101572.84;;;15.50;71.43
17362;BME280;8798;51.938;4.348;2023-05-23T01:50:17;101583.53;;;15.52;71.38
17362;BME280;8798;51.938;4.348;2023-05-23T01:52:45;101609.28;;;15.56;71.36
17362;BME280;8798;51.938;4.348;2023-05-23T01:55:16;101598.75;;;15.53;71.46
17362;BME280;8798;51.938;4.348;2023-05-23T01:57:50;101601.66;;;15.51;71.30
17362;BME280;8798;51.938;4.348;2023-05-23T02:00:20;101603.66;;;15.49;71.52
17362;BME280;8798;51.938;4.348;2023-05-23T02:02:48;101625.00;;;15.52;70.99
17362;BME280;8798;51.938;4.348;2023-05-23T02:05:16;101618.91;;;15.50;71.40
17362;BME280;8798;51.938;4.348;2023-05-23T02:07:44;101610.28;;;15.46;71.48
17362;BME280;8798;51.938;4.348;2023-05-23T02:10:12;101655.47;;;15.54;71.43
17362;BME280;8798;51.938;4.348;2023-05-23T02:12:40;101650.22;;;15.53;71.34
17362;BME280;8798;51.938;4.348;2023-05-23T02:15:09;101643.25;;;15.50;71.41
17362;BME280;8798;51.938;4.348;2023-05-23T02:17:37;101625.13;;;15.42;71.40
17362;BME280;8798;51.938;4.348;2023-05-23T02:20:07;101644.63;;;15.46;71.27
17362;BME280;8798;51.938;4.348;2023-05-23T02:22:37;101641.91;;;15.46;71.20
17362;BME280;8798;51.938;4.348;2023-05-23T02:25:06;101663.41;;;15.47;71.16
17362;BME280;8798;51.938;4.348;2023-05-23T02:27:34;101668.81;;;15.47;71.24
17362;BME280;8798;51.938;4.348;2023-05-23T02:30:02;101623.09;;;15.36;71.21
17362;BME280;8798;51.938;4.348;2023-05-23T02:32:32;101591.44;;;15.29;71.22
17362;BME280;8798;51.938;4.348;2023-05-23T02:35:02;101598.03;;;15.26;71.09
17362;BME280;8798;51.938;4.348;2023-05-23T02:37:30;101600.88;;;15.24;71.32
17362;BME280;8798;51.938;4.348;2023-05-23T02:39:58;101607.16;;;15.25;71.43
17362;BME280;8798;51.938;4.348;2023-05-23T02:42:26;101623.22;;;15.26;71.10
17362;BME280;8798;51.938;4.348;2023-05-23T02:44:54;101623.38;;;15.25;71.16
17362;BME280;8798;51.938;4.348;2023-05-23T02:47:22;101611.34;;;15.19;71.22
17362;BME280;8798;51.938;4.348;2023-05-23T02:49:51;101594.63;;;15.16;71.05
17362;BME280;8798;51.938;4.348;2023-05-23T02:52:19;101608.16;;;15.16;71.05
17362;BME280;8798;51.938;4.348;2023-05-23T02:54:47;101607.44;;;15.14;71.20
17362;BME280;8798;51.938;4.348;2023-05-23T02:57:15;101627.09;;;15.16;71.11
17362;BME280;8798;51.938;4.348;2023-05-23T02:59:43;101623.69;;;15.14;71.21
17362;BME280;8798;51.938;4.348;2023-05-23T03:02:11;101632.66;;;15.14;71.18
17362;BME280;8798;51.938;4.348;2023-05-23T03:04:39;101626.69;;;15.11;71.22
17362;BME280;8798;51.938;4.348;2023-05-23T03:07:08;101642.78;;;15.12;71.01
17362;BME280;8798;51.938;4.348;2023-05-23T03:09:53;101648.19;;;15.12;71.25
17362;BME280;8798;51.938;4.348;2023-05-23T03:12:21;101623.81;;;15.04;71.36
17362;BME280;8798;51.938;4.348;2023-05-23T03:14:49;101621.25;;;15.02;71.10
17362;BME280;8798;51.938;4.348;2023-05-23T03:17:17;101625.81;;;15.02;71.32
17362;BME280;8798;51.938;4.348;2023-05-23T03:19:45;101641.22;;;15.01;71.31
17362;BME280;8798;51.938;4.348;2023-05-23T03:22:14;101638.66;;;15.00;71.04
17362;BME280;8798;51.938;4.348;2023-05-23T03:24:42;101613.44;;;14.91;71.24
17362;BME280;8798;51.938;4.348;2023-05-23T03:27:09;101601.25;;;14.87;71.02
17362;BME280;8798;51.938;4.348;2023-05-23T03:29:37;101581.25;;;14.80;71.08
17362;BME280;8798;51.938;4.348;2023-05-23T03:32:05;101590.19;;;14.80;70.97
17362;BME280;8798;51.938;4.348;2023-05-23T03:34:33;101573.78;;;14.74;71.35
17362;BME280;8798;51.938;4.348;2023-05-23T03:37:02;101570.41;;;14.72;71.10
17362;BME280;8798;51.938;4.348;2023-05-23T03:39:31;101568.00;;;14.69;71.18
17362;BME280;8798;51.938;4.348;2023-05-23T03:41:59;101547.00;;;14.62;71.18
17362;BME280;8798;51.938;4.348;2023-05-23T03:44:27;101544.78;;;14.58;71.18
17362;BME280;8798;51.938;4.348;2023-05-23T03:46:54;101540.56;;;14.55;70.90
17362;BME280;8798;51.938;4.348;2023-05-23T03:49:22;101542.41;;;14.55;71.17
17362;BME280;8798;51.938;4.348;2023-05-23T03:51:50;101555.09;;;14.54;70.99
17362;BME280;8798;51.938;4.348;2023-05-23T03:54:18;101578.78;;;14.60;70.97
17362;BME280;8798;51.938;4.348;2023-05-23T03:56:47;101621.41;;;14.67;70.95
17362;BME280;8798;51.938;4.348;2023-05-23T03:59:15;101634.59;;;14.70;70.84
17362;BME280;8798;51.938;4.348;2023-05-23T04:01:42;101640.16;;;14.68;70.95
17362;BME280;8798;51.938;4.348;2023-05-23T04:04:10;101647.44;;;14.68;70.98
17362;BME280;8798;51.938;4.348;2023-05-23T04:06:38;101637.94;;;14.63;70.83
17362;BME280;8798;51.938;4.348;2023-05-23T04:09:06;101632.84;;;14.60;70.69
17362;BME280;8798;51.938;4.348;2023-05-23T04:11:34;101595.25;;;14.49;70.55
17362;BME280;8798;51.938;4.348;2023-05-23T04:14:03;101572.56;;;14.42;70.86
17362;BME280;8798;51.938;4.348;2023-05-23T04:16:31;101566.59;;;14.38;70.73
17362;BME280;8798;51.938;4.348;2023-05-23T04:19:01;101571.31;;;14.36;70.76
17362;BME280;8798;51.938;4.348;2023-05-23T04:21:31;101577.59;;;14.37;70.80
17362;BME280;8798;51.938;4.348;2023-05-23T04:24:00;101577.88;;;14.34;70.87
17362;BME280;8798;51.938;4.348;2023-05-23T04:26:28;101602.59;;;14.39;70.50
17362;BME280;8798;51.938;4.348;2023-05-23T04:28:56;101629.31;;;14.42;70.42
17362;BME280;8798;51.938;4.348;2023-05-23T04:31:26;101633.00;;;14.41;70.65
17362;BME280;8798;51.938;4.348;2023-05-23T04:33:53;101664.00;;;14.47;70.70
17362;BME280;8798;51.938;4.348;2023-05-23T04:36:21;101694.97;;;14.52;70.17
17362;BME280;8798;51.938;4.348;2023-05-23T04:38:51;101696.97;;;14.50;70.59
17362;BME280;8798;51.938;4.348;2023-05-23T04:41:19;101690.03;;;14.48;70.22
17362;BME280;8798;51.938;4.348;2023-05-23T04:43:49;101677.81;;;14.44;70.34
17362;BME280;8798;51.938;4.348;2023-05-23T04:46:20;101690.16;;;14.46;70.16
17362;BME280;8798;51.938;4.348;2023-05-23T04:48:53;101694.91;;;14.44;70.23
17362;BME280;8798;51.938;4.348;2023-05-23T04:51:21;101733.97;;;14.50;70.34
17362;BME280;8798;51.938;4.348;2023-05-23T04:53:50;101738.53;;;14.49;70.02
17362;BME280;8798;51.938;4.348;2023-05-23T04:56:18;101759.84;;;14.52;70.00
17362;BME280;8798;51.938;4.348;2023-05-23T04:58:48;101794.41;;;14.58;70.11
17362;BME280;8798;51.938;4.348;2023-05-23T05:01:15;101785.75;;;14.55;70.03
17362;BME280;8798;51.938;4.348;2023-05-23T05:03:43;101803.38;;;14.59;69.97
17362;BME280;8798;51.938;4.348;2023-05-23T05:06:14;101812.34;;;14.59;69.98
17362;BME280;8798;51.938;4.348;2023-05-23T05:08:42;101802.84;;;14.55;70.02
17362;BME280;8798;51.938;4.348;2023-05-23T05:11:10;101775.69;;;14.47;69.82
17362;BME280;8798;51.938;4.348;2023-05-23T05:13:38;101755.53;;;14.41;69.67
17362;BME280;8798;51.938;4.348;2023-05-23T05:16:06;101774.28;;;14.43;69.50
17362;BME280;8798;51.938;4.348;2023-05-23T05:18:37;101784.13;;;14.44;69.84
17362;BME280;8798;51.938;4.348;2023-05-23T05:21:05;101761.41;;;14.37;69.42
17362;BME280;8798;51.938;4.348;2023-05-23T05:23:35;101736.00;;;14.30;69.54
17362;BME280;8798;51.938;4.348;2023-05-23T05:26:03;101739.69;;;14.29;69.25
17362;BME280;8798;51.938;4.348;2023-05-23T05:28:31;101752.03;;;14.31;69.50
17362;BME280;8798;51.938;4.348;2023-05-23T05:30:59;101752.34;;;14.28;69.20
17362;BME280;8798;51.938;4.348;2023-05-23T05:33:30;101743.84;;;14.23;69.34
17362;BME280;8798;51.938;4.348;2023-05-23T05:36:01;101728.78;;;14.20;69.00
17362;BME280;8798;51.938;4.348;2023-05-23T05:38:29;101760.91;;;14.24;69.00
17362;BME280;8798;51.938;4.348;2023-05-23T05:40:58;101775.84;;;14.28;69.03
17362;BME280;8798;51.938;4.348;2023-05-23T05:43:26;101769.88;;;14.24;69.36
17362;BME280;8798;51.938;4.348;2023-05-23T05:45:54;101782.53;;;14.24;69.10
17362;BME280;8798;51.938;4.348;2023-05-23T05:48:22;101772.03;;;14.20;69.20
17362;BME280;8798;51.938;4.348;2023-05-23T05:50:50;101777.75;;;14.17;68.83
17362;BME280;8798;51.938;4.348;2023-05-23T05:53:17;101771.34;;;14.18;69.01
17362;BME280;8798;51.938;4.348;2023-05-23T05:55:45;101787.72;;;14.17;68.95
17362;BME280;8798;51.938;4.348;2023-05-23T05:58:15;101805.31;;;14.21;69.09
17362;BME280;8798;51.938;4.348;2023-05-23T06:00:42;101841.69;;;14.27;69.31
17362;BME280;8798;51.938;4.348;2023-05-23T06:03:11;101875.22;;;14.34;69.07
17362;BME280;8798;51.938;4.348;2023-05-23T06:05:40;101869.13;;;14.32;69.10
17362;BME280;8798;51.938;4.348;2023-05-23T06:08:07;101855.19;;;14.27;69.29
17362;BME280;8798;51.938;4.348;2023-05-23T06:10:36;101844.00;;;14.22;69.01
17362;BME280;8798;51.938;4.348;2023-05-23T06:13:05;101854.78;;;14.22;69.16
17362;BME280;8798;51.938;4.348;2023-05-23T06:15:34;101869.03;;;14.24;69.10
17362;BME280;8798;51.938;4.348;2023-05-23T06:18:02;101876.28;;;14.23;69.12
17362;BME280;8798;51.938;4.348;2023-05-23T06:20:30;101890.50;;;14.25;69.44
17362;BME280;8798;51.938;4.348;2023-05-23T06:22:58;101902.03;;;14.27;69.26
17362;BME280;8798;51.938;4.348;2023-05-23T06:25:27;101908.28;;;14.28;69.28
17362;BME280;8798;51.938;4.348;2023-05-23T06:27:55;101916.38;;;14.28;69.52
17362;BME280;8798;51.938;4.348;2023-05-23T06:30:22;101915.66;;;14.26;69.40
17362;BME280;8798;51.938;4.348;2023-05-23T06:32:51;101892.94;;;14.18;69.47
17362;BME280;8798;51.938;4.348;2023-05-23T06:35:19;101877.34;;;14.12;69.48
17362;BME280;8798;51.938;4.348;2023-05-23T06:37:47;101875.78;;;14.10;69.26
17362;BME280;8798;51.938;4.348;2023-05-23T06:40:15;101874.91;;;14.09;69.48
17362;BME280;8798;51.938;4.348;2023-05-23T06:42:43;101888.16;;;14.12;69.50
17362;BME280;8798;51.938;4.348;2023-05-23T06:45:11;101923.69;;;14.17;69.77
17362;BME280;8798;51.938;4.348;2023-05-23T06:47:42;101977.53;;;14.29;69.63
17362;BME280;8798;51.938;4.348;2023-05-23T06:50:12;102032.28;;;14.40;69.48
17362;BME280;8798;51.938;4.348;2023-05-23T06:52:40;102110.81;;;14.58;69.47
17362;BME280;8798;51.938;4.348;2023-05-23T06:55:09;102186.50;;;14.78;69.45
17362;BME280;8798;51.938;4.348;2023-05-23T06:57:39;102213.09;;;14.82;69.49
17362;BME280;8798;51.938;4.348;2023-05-23T07:00:08;102257.09;;;14.94;69.16
17362;BME280;8798;51.938;4.348;2023-05-23T07:02:36;102325.88;;;15.11;69.01
17362;BME280;8798;51.938;4.348;2023-05-23T07:05:05;102397.34;;;15.28;69.09
17362;BME280;8798;51.938;4.348;2023-05-23T07:07:34;102443.25;;;15.39;68.78
17362;BME280;8798;51.938;4.348;2023-05-23T07:10:02;102459.91;;;15.44;68.80
17362;BME280;8798;51.938;4.348;2023-05-23T07:12:30;102446.50;;;15.43;68.70
17362;BME280;8798;51.938;4.348;2023-05-23T07:15:00;102404.06;;;15.34;68.48
17362;BME280;8798;51.938;4.348;2023-05-23T07:17:28;102338.81;;;15.17;68.57
17362;BME280;8798;51.938;4.348;2023-05-23T07:19:58;102282.28;;;15.04;68.02
17362;BME280;8798;51.938;4.348;2023-05-23T07:22:30;102258.34;;;15.00;68.10
17362;BME280;8798;51.938;4.348;2023-05-23T07:24:59;102287.56;;;15.06;68.05
17362;BME280;8798;51.938;4.348;2023-05-23T07:27:28;102365.16;;;15.25;67.88
17362;BME280;8798;51.938;4.348;2023-05-23T07:29:55;102405.63;;;15.36;67.76
17362;BME280;8798;51.938;4.348;2023-05-23T07:32:24;102458.78;;;15.47;67.64
17362;BME280;8798;51.938;4.348;2023-05-23T07:34:51;102488.69;;;15.55;67.49
17362;BME280;8798;51.938;4.348;2023-05-23T07:37:19;102503.38;;;15.62;67.32
17362;BME280;8798;51.938;4.348;2023-05-23T07:39:47;102506.97;;;15.63;67.34
17362;BME280;8798;51.938;4.348;2023-05-23T07:42:16;102514.78;;;15.66;66.89
17362;BME280;8798;51.938;4.348;2023-05-23T07:44:44;102529.06;;;15.68;67.12
17362;BME280;8798;51.938;4.348;2023-05-23T07:47:12;102574.69;;;15.82;66.77
17362;BME280;8798;51.938;4.348;2023-05-23T07:49:40;102633.06;;;15.96;66.83
17362;BME280;8798;51.938;4.348;2023-05-23T07:52:07;102649.63;;;16.03;66.48
17362;BME280;8798;51.938;4.348;2023-05-23T07:54:35;102657.59;;;16.04;66.60
17362;BME280;8798;51.938;4.348;2023-05-23T07:57:04;102566.44;;;15.84;66.14
17362;BME280;8798;51.938;4.348;2023-05-23T07:59:34;102476.16;;;15.64;66.09
17362;BME280;8798;51.938;4.348;2023-05-23T08:02:02;102422.13;;;15.53;65.41
17362;BME280;8798;51.938;4.348;2023-05-23T08:04:30;102452.19;;;15.59;65.78
17362;BME280;8798;51.938;4.348;2023-05-23T08:06:59;102519.22;;;15.77;65.81
17362;BME280;8798;51.938;4.348;2023-05-23T08:09:31;102596.25;;;15.94;65.72
17362;BME280;8798;51.938;4.348;2023-05-23T08:11:59;102645.47;;;16.08;65.42
17362;BME280;8798;51.938;4.348;2023-05-23T08:14:28;102669.16;;;16.16;65.34
17362;BME280;8798;51.938;4.348;2023-05-23T08:17:17;102647.88;;;16.11;65.19
17362;BME280;8798;51.938;4.348;2023-05-23T08:19:44;102660.16;;;16.16;64.98
17362;BME280;8798;51.938;4.348;2023-05-23T08:22:13;102687.28;;;16.25;64.86
17362;BME280;8798;51.938;4.348;2023-05-23T08:24:40;102734.09;;;16.37;64.80
17362;BME280;8798;51.938;4.348;2023-05-23T08:27:08;102807.50;;;16.55;64.67
17362;BME280;8798;51.938;4.348;2023-05-23T08:29:36;102819.75;;;16.59;64.65
17362;BME280;8798;51.938;4.348;2023-05-23T08:32:04;102819.50;;;16.62;64.57
17362;BME280;8798;51.938;4.348;2023-05-23T08:34:33;102732.66;;;16.43;64.01
17362;BME280;8798;51.938;4.348;2023-05-23T08:37:01;102656.28;;;16.28;63.91
17362;BME280;8798;51.938;4.348;2023-05-23T08:39:29;102605.09;;;16.15;63.68
17362;BME280;8798;51.938;4.348;2023-05-23T08:41:57;102619.19;;;16.19;63.62
17362;BME280;8798;51.938;4.348;2023-05-23T08:44:25;102659.56;;;16.31;63.62
17362;BME280;8798;51.938;4.348;2023-05-23T08:46:53;102689.56;;;16.40;63.39
17362;BME280;8798;51.938;4.348;2023-05-23T08:49:24;102737.06;;;16.53;63.10
17362;BME280;8798;51.938;4.348;2023-05-23T08:51:56;102805.34;;;16.68;63.31
17362;BME280;8798;51.938;4.348;2023-05-23T08:54:28;102758.06;;;16.61;62.68
17362;BME280;8798;51.938;4.348;2023-05-23T08:56:56;102714.81;;;16.50;63.01
17362;BME280;8798;51.938;4.348;2023-05-23T08:59:24;102610.31;;;16.26;62.87
17362;BME280;8798;51.938;4.348;2023-05-23T09:01:54;102506.66;;;16.05;62.82
17362;BME280;8798;51.938;4.348;2023-05-23T09:04:22;102464.56;;;15.91;62.58
17362;BME280;8798;51.938;4.348;2023-05-23T09:06:50;102457.28;;;15.91;62.41
17362;BME280;8798;51.938;4.348;2023-05-23T09:09:19;102564.25;;;16.17;62.31
17362;BME280;8798;51.938;4.348;2023-05-23T09:11:47;102678.13;;;16.46;62.24
17362;BME280;8798;51.938;4.348;2023-05-23T09:14:15;102718.66;;;16.57;62.17
17362;BME280;8798;51.938;4.348;2023-05-23T09:16:46;102776.06;;;16.72;62.16
17362;BME280;8798;51.938;4.348;2023-05-23T09:19:14;102842.34;;;16.89;62.13
17362;BME280;8798;51.938;4.348;2023-05-23T09:21:43;102903.38;;;17.04;62.21
17362;BME280;8798;51.938;4.348;2023-05-23T09:24:11;102902.25;;;17.07;62.00
17362;BME280;8798;51.938;4.348;2023-05-23T09:26:40;102916.38;;;17.10;61.64
17362;BME280;8798;51.938;4.348;2023-05-23T09:29:08;102923.25;;;17.14;61.45
17362;BME280;8798;51.938;4.348;2023-05-23T09:31:36;102921.25;;;17.16;61.40
17362;BME280;8798;51.938;4.348;2023-05-23T09:34:04;102895.25;;;17.14;60.97
17362;BME280;8798;51.938;4.348;2023-05-23T09:36:32;102802.22;;;16.92;61.14
17362;BME280;8798;51.938;4.348;2023-05-23T09:39:03;102741.94;;;16.79;60.89
17362;BME280;8798;51.938;4.348;2023-05-23T09:41:32;102664.94;;;16.61;60.83
17362;BME280;8798;51.938;4.348;2023-05-23T09:44:07;102630.28;;;16.54;60.75
17362;BME280;8798;51.938;4.348;2023-05-23T09:46:36;102685.91;;;16.68;60.86
17362;BME280;8798;51.938;4.348;2023-05-23T09:49:14;102729.22;;;16.80;60.81
17362;BME280;8798;51.938;4.348;2023-05-23T09:51:43;102722.94;;;16.79;60.55
17362;BME280;8798;51.938;4.348;2023-05-23T09:54:10;102775.91;;;16.93;60.54
17362;BME280;8798;51.938;4.348;2023-05-23T09:56:39;102795.19;;;17.00;60.30
17362;BME280;8798;51.938;4.348;2023-05-23T09:59:12;102844.63;;;17.13;60.37
17362;BME280;8798;51.938;4.348;2023-05-23T10:01:43;102839.19;;;17.13;59.88
17362;BME280;8798;51.938;4.348;2023-05-23T10:04:15;102786.03;;;17.01;60.28
17362;BME280;8798;51.938;4.348;2023-05-23T10:06:51;102740.91;;;16.90;59.91
17362;BME280;8798;51.938;4.348;2023-05-23T10:09:21;102732.78;;;16.90;59.98
17362;BME280;8798;51.938;4.348;2023-05-23T10:15:05;102687.50;;;16.81;59.71
17362;BME280;8798;51.938;4.348;2023-05-23T10:17:39;102693.63;;;16.83;59.73
17362;BME280;8798;51.938;4.348;2023-05-23T10:20:15;102680.38;;;16.80;59.56
17362;BME280;8798;51.938;4.348;2023-05-23T10:22:43;102650.91;;;16.75;59.41
17362;BME280;8798;51.938;4.348;2023-05-23T10:25:11;102665.94;;;16.79;59.51
17362;BME280;8798;51.938;4.348;2023-05-23T10:27:41;102753.44;;;17.01;59.68
17362;BME280;8798;51.938;4.348;2023-05-23T10:30:11;102778.16;;;17.07;59.18
17362;BME280;8798;51.938;4.348;2023-05-23T10:32:40;102721.47;;;16.94;59.25
17362;BME280;8798;51.938;4.348;2023-05-23T10:35:14;102734.63;;;16.99;58.96
17362;BME280;8798;51.938;4.348;2023-05-23T10:37:48;102675.34;;;16.85;58.75
17362;BME280;8798;51.938;4.348;2023-05-23T10:40:23;102604.38;;;16.70;58.96
17362;BME280;8798;51.938;4.348;2023-05-23T10:43:00;102553.16;;;16.57;58.95
17362;BME280;8798;51.938;4.348;2023-05-23T10:45:38;102542.44;;;16.55;59.04
17362;BME280;8798;51.938;4.348;2023-05-23T10:48:19;102552.25;;;16.56;58.74
17362;BME280;8798;51.938;4.348;2023-05-23T10:51:01;102579.66;;;16.63;58.78
17362;BME280;8798;51.938;4.348;2023-05-23T10:53:30;102600.81;;;16.69;58.53
17362;BME280;8798;51.938;4.348;2023-05-23T10:55:58;102625.47;;;16.76;58.92
17362;BME280;8798;51.938;4.348;2023-05-23T10:58:28;102638.81;;;16.79;58.78
17362;BME280;8798;51.938;4.348;2023-05-23T11:01:00;102654.63;;;16.84;58.94
17362;BME280;8798;51.938;4.348;2023-05-23T11:03:33;102643.94;;;16.82;58.47
17362;BME280;8798;51.938;4.348;2023-05-23T11:06:02;102615.50;;;16.76;58.28
17362;BME280;8798;51.938;4.348;2023-05-23T11:08:37;102580.06;;;16.68;58.32
17362;BME280;8798;51.938;4.348;2023-05-23T11:11:14;102544.69;;;16.60;58.22
17362;BME280;8798;51.938;4.348;2023-05-23T11:13:56;102570.53;;;16.64;57.80
17362;BME280;8798;51.938;4.348;2023-05-23T11:16:29;102593.34;;;16.71;57.91
17362;BME280;8798;51.938;4.348;2023-05-23T11:19:22;102642.78;;;16.85;57.85
17362;BME280;8798;51.938;4.348;2023-05-23T11:21:57;102727.72;;;17.05;57.80
17362;BME280;8798;51.938;4.348;2023-05-23T11:24:46;102832.88;;;17.32;57.86
17362;BME280;8798;51.938;4.348;2023-05-23T11:27:14;102843.13;;;17.38;57.03
17362;BME280;8798;51.938;4.348;2023-05-23T11:29:55;102898.88;;;17.52;57.45
17362;BME280;8798;51.938;4.348;2023-05-23T11:32:26;102884.56;;;17.50;57.17
17362;BME280;8798;51.938;4.348;2023-05-23T11:34:55;102779.81;;;17.28;57.23
17362;BME280;8798;51.938;4.348;2023-05-23T11:37:29;102786.09;;;17.28;57.14
17362;BME280;8798;51.938;4.348;2023-05-23T11:39:57;102845.28;;;17.44;56.53
17362;BME280;8798;51.938;4.348;2023-05-23T11:42:25;102881.44;;;17.54;56.50
17362;BME280;8798;51.938;4.348;2023-05-23T11:44:53;102880.28;;;17.57;56.71
17362;BME280;8798;51.938;4.348;2023-05-23T11:47:21;102898.72;;;17.63;56.83
17362;BME280;8798;51.938;4.348;2023-05-23T11:49:50;102948.19;;;17.76;56.46
17362;BME280;8798;51.938;4.348;2023-05-23T11:52:19;102947.34;;;17.76;56.26
17362;BME280;8798;51.938;4.348;2023-05-23T11:54:46;102937.44;;;17.75;56.12
17362;BME280;8798;51.938;4.348;2023-05-23T11:57:14;102903.56;;;17.69;56.44
17362;BME280;8798;51.938;4.348;2023-05-23T11:59:43;102881.25;;;17.66;56.69
17362;BME280;8798;51.938;4.348;2023-05-23T12:02:11;102897.09;;;17.70;56.19
17362;BME280;8798;51.938;4.348;2023-05-23T12:04:39;102919.84;;;17.79;56.28
17362;BME280;8798;51.938;4.348;2023-05-23T12:07:08;102963.19;;;17.90;56.15
17362;BME280;8798;51.938;4.348;2023-05-23T12:09:42;102920.59;;;17.81;55.91
17362;BME280;8798;51.938;4.348;2023-05-23T12:12:11;102907.97;;;17.80;55.84
17362;BME280;8798;51.938;4.348;2023-05-23T12:14:41;102922.88;;;17.86;55.58
17362;BME280;8798;51.938;4.348;2023-05-23T12:17:10;102889.81;;;17.80;55.72
17362;BME280;8798;51.938;4.348;2023-05-23T12:19:44;102773.88;;;17.52;55.73
17362;BME280;8798;51.938;4.348;2023-05-23T12:22:13;102762.28;;;17.50;55.45
17362;BME280;8798;51.938;4.348;2023-05-23T12:24:44;102810.72;;;17.64;55.30
17362;BME280;8798;51.938;4.348;2023-05-23T12:27:15;102796.56;;;17.60;55.38
17362;BME280;8798;51.938;4.348;2023-05-23T12:29:49;102729.28;;;17.45;55.72
17362;BME280;8798;51.938;4.348;2023-05-23T12:32:18;102701.00;;;17.37;55.39
17362;BME280;8798;51.938;4.348;2023-05-23T12:34:48;102748.56;;;17.51;55.39
17362;BME280;8798;51.938;4.348;2023-05-23T12:37:17;102812.28;;;17.67;55.25
17362;BME280;8798;51.938;4.348;2023-05-23T12:39:46;102842.16;;;17.76;55.40
17362;BME280;8798;51.938;4.348;2023-05-23T12:42:14;102849.16;;;17.79;54.89
17362;BME280;8798;51.938;4.348;2023-05-23T12:44:42;102890.78;;;17.89;55.17
17362;BME280;8798;51.938;4.348;2023-05-23T12:47:11;102974.88;;;18.10;55.02
17362;BME280;8798;51.938;4.348;2023-05-23T12:49:39;102941.13;;;18.03;54.86
17362;BME280;8798;51.938;4.348;2023-05-23T12:52:07;102878.88;;;17.90;54.74
17362;BME280;8798;51.938;4.348;2023-05-23T12:54:36;102869.72;;;17.91;54.87
17362;BME280;8798;51.938;4.348;2023-05-23T12:57:04;102932.66;;;18.06;55.02
17362;BME280;8798;51.938;4.348;2023-05-23T12:59:32;102980.25;;;18.20;54.76
17362;BME280;8798;51.938;4.348;2023-05-23T13:02:00;102969.38;;;18.20;54.55
17362;BME280;8798;51.938;4.348;2023-05-23T13:04:28;102957.81;;;18.18;54.57
17362;BME280;8798;51.938;4.348;2023-05-23T13:06:58;102942.66;;;18.15;54.34
17362;BME280;8798;51.938;4.348;2023-05-23T13:09:25;102920.31;;;18.12;54.06
17362;BME280;8798;51.938;4.348;2023-05-23T13:11:55;102863.41;;;18.00;54.32
17362;BME280;8798;51.938;4.348;2023-05-23T13:14:24;102920.72;;;18.17;53.90
17362;BME280;8798;51.938;4.348;2023-05-23T13:16:52;102981.78;;;18.32;53.80